Resolute Bay Airport
CYRB : now visible

Airfield :











YOU CAN JOIN US ON...

 
LOGIN :

Register | Disclaimer

   EN    FR    IT 

 









Legend :    VFR   Marginal VFR   IFR   Intensive IFR   Very Intensive IFR
Visi :
Ceiling :
>= 8 km
>= 3000ft
5 to 8 km
1000 to 3000 ft
1500m to 5 km
500 to 1000 ft
800 to 1500m
200 to 500 ft
< 800m
< 200 ft
Symbols :   Thunderstorms  Fog  Heavy snow  Heavy precipitations  Wind > 20 kt






- Airport Elevation : 215 ft
- IATA code : YRB


CYRB - Resolute Bay

CURRENT METAR :
  • 011100Z 27008KT 15SM IC FEW055 M22/M25 A2973 RMK SC2 SLP080

EXPIRED METARs :
  • 011000Z 29004KT 15SM -SN OVC056 M21/M24 A2972 RMK SC8 SLP075
  • 010900Z 16006KT 15SM -SN OVC060 M20/M23 A2970 RMK SC8 SLP070

TAF TAF CYRB
Valid from the 01 at 12:00 until the 02 at 12:00 UTC


011138Z 0112/0212 27010KT P6SM FEW006 SCT020
TEMPO 0112/0115 3SM -SN BR SCT006 BKN020
FM011500 26010KT P6SM SCT006
TEMPO 0115/0124 3SM IC BR BKN006
FM020000 19010KT P6SM FEW008 SCT015
FM020900 VRB03KT P6SM FEW020 RMK NXT FCST BY 011800Z
CZEG FIR / North America



MET'MAP, your aeronautical weather chart ! - Copyright ORBIFLY December 2007 - Disclaimer

ORBIFLY MET'MAP TEAM :

Programming & Development : Alexandra Zaïnal
Concept & original design : Baudouin d'Aumeries
Assistance for programming : Marc-Olivier Méhu
Technical & hardware support : Manuel Goepfert

Contact : metmap@orbifly.com




SOURCES & CREDITS :

   NOAA       Earth
Advisory